El Hierro > ESTACION METEOROLÓGICA Punto Limpio Frontera

DATOS ACTUALES Online

Ultima actulizacion 36 minutos

21.6 ºC

Temperatura

93

Humedad (%)

1006.8

Presión (mb)

6.4

Precipitación (mm)

1.1 NW

Viento (Km/h)

DATOS DIARIOS

Temperatura últimas 24 horas (ºC)

Humedad últimas 24 horas (%)

Presión atmosférica últimas 24 horas (mb)

Precipitaciones últimas 23 horas (mm)

Viento últimas 24 horas (Km/h)

Hora Temperatura (°C) ºC Precipitación (mm) mm Presión (mb) mb Humedad (%) % Viento (Km/h) km/h
25 - 00:00 23.8 0 1011 67 4 NW
25 - 01:00 23.7 0 1010 71 5.8 N
25 - 02:00 23.7 0 1009 72 4 NO
25 - 03:00 24.1 0 1009 70 1.4 NO
25 - 04:00 23.7 0 1008 73 1.1 NW
25 - 05:00 23.4 0 1008 74 3.6 O
25 - 06:00 23.6 0 1008 75 5.4 N
25 - 07:00 23.6 0 1009 75 0 NW
25 - 08:00 22.6 0.1 1010 83 0.4 NW
25 - 09:00 22.4 0.4 1010 85 0 W
25 - 10:00 22 2.2 1011 88 0 N
25 - 11:00 21.6 2.6 1011 89 1.1 NO
25 - 12:00 21.5 3.2 1011 90 1.8 NO
25 - 13:00 21.5 3.4 1011 90 4.3 NO
25 - 14:00 21.4 3.7 1010 90 0 NO
25 - 15:00 21.7 4 1009 91 1.4 O
25 - 16:00 21.8 4.1 1008 91 2.9 NO
25 - 17:00 21.8 4.5 1008 91 1.1 NO
25 - 18:00 21.8 5.3 1008 91 0 NO
25 - 19:00 21.7 5.5 1007 92 0 NO
25 - 20:00 21.7 5.6 1007 93 0 NO
25 - 21:00 21.7 5.7 1007 93 0 N
25 - 22:00 21.7 5.9 1007 93 1.8 NW
25 - 23:00 21.6 6.4 1007 93 1.1 NW
26 - 00:00
Apalmet utiliza cookies propias y de terceros para mejorar la usabilidad y la experiencia web. Política de cookies.